GAP2018 RPLL-RPUY
Flight info
| Callsign | GAP2018 |
|---|---|
| Flight time | 0h 33m |
| Altitude | 21000 |
| Route | CAB2V CAB W1 CUY |
| Aircraft | A320/M-SDE3FGHIRWY/LB1 |
Departure
| Time | 2026-04-25 05:43 |
|---|---|
| Airport | Ninoy Aquino International Airport (RPLL) |
Arrival
| Time | 2026-04-25 06:16 |
|---|---|
| Airport | Cauayan Airport (RPUY) |
| Time | Latitude | Longitude | Altitude | Speed | Heading |
|---|---|---|---|---|---|
| 2026-04-25 04:58 | 14.51023 | 121.01404 | 69 ft | 0 kts | 225° |
| 2026-04-25 05:30 | 14.51029 | 121.01410 | 59 ft | 2 kts | 225° |
| 2026-04-25 05:31 | 14.51039 | 121.01421 | 59 ft | 2 kts | 225° |
| 2026-04-25 05:31 | 14.51050 | 121.01432 | 63 ft | 2 kts | 225° |
| 2026-04-25 05:31 | 14.51060 | 121.01443 | 59 ft | 2 kts | 225° |
| 2026-04-25 05:31 | 14.51071 | 121.01454 | 59 ft | 2 kts | 235° |
| 2026-04-25 05:32 | 14.51077 | 121.01468 | 64 ft | 2 kts | 278° |
| 2026-04-25 05:32 | 14.51075 | 121.01479 | 63 ft | 0 kts | 309° |
| 2026-04-25 05:35 | 14.51078 | 121.01475 | 63 ft | 5 kts | 309° |
| 2026-04-25 05:35 | 14.51112 | 121.01438 | 62 ft | 7 kts | 315° |
| 2026-04-25 05:35 | 14.51143 | 121.01407 | 64 ft | 6 kts | 315° |
| 2026-04-25 05:35 | 14.51167 | 121.01382 | 62 ft | 4 kts | 320° |
| 2026-04-25 05:36 | 14.51202 | 121.01366 | 64 ft | 6 kts | 354° |
| 2026-04-25 05:36 | 14.51236 | 121.01382 | 66 ft | 8 kts | 44° |
| 2026-04-25 05:36 | 14.51284 | 121.01432 | 67 ft | 10 kts | 46° |
| 2026-04-25 05:36 | 14.51325 | 121.01479 | 66 ft | 8 kts | 53° |
| 2026-04-25 05:37 | 14.51356 | 121.01517 | 64 ft | 8 kts | 46° |
| 2026-04-25 05:37 | 14.51403 | 121.01567 | 65 ft | 9 kts | 45° |
| 2026-04-25 05:37 | 14.51453 | 121.01588 | 63 ft | 7 kts | 347° |
| 2026-04-25 05:37 | 14.51493 | 121.01552 | 67 ft | 12 kts | 315° |
| 2026-04-25 05:38 | 14.51559 | 121.01484 | 67 ft | 13 kts | 315° |
| 2026-04-25 05:38 | 14.51619 | 121.01422 | 68 ft | 11 kts | 315° |
| 2026-04-25 05:38 | 14.51671 | 121.01368 | 66 ft | 10 kts | 315° |
| 2026-04-25 05:38 | 14.51721 | 121.01317 | 64 ft | 10 kts | 315° |
| 2026-04-25 05:39 | 14.51769 | 121.01267 | 62 ft | 11 kts | 315° |
| 2026-04-25 05:39 | 14.51856 | 121.01177 | 63 ft | 21 kts | 315° |
| 2026-04-25 05:39 | 14.51953 | 121.01078 | 62 ft | 19 kts | 315° |
| 2026-04-25 05:39 | 14.52046 | 121.00982 | 61 ft | 18 kts | 315° |
| 2026-04-25 05:40 | 14.52128 | 121.00896 | 65 ft | 16 kts | 315° |
| 2026-04-25 05:40 | 14.52203 | 121.00819 | 66 ft | 14 kts | 315° |
| 2026-04-25 05:40 | 14.52271 | 121.00749 | 69 ft | 13 kts | 316° |
| 2026-04-25 05:40 | 14.52333 | 121.00686 | 69 ft | 12 kts | 315° |
| 2026-04-25 05:41 | 14.52385 | 121.00631 | 69 ft | 10 kts | 315° |
| 2026-04-25 05:41 | 14.52434 | 121.00582 | 67 ft | 9 kts | 315° |
| 2026-04-25 05:41 | 14.52476 | 121.00538 | 66 ft | 8 kts | 315° |
| 2026-04-25 05:41 | 14.52486 | 121.00493 | 69 ft | 6 kts | 242° |
| 2026-04-25 05:42 | 14.52451 | 121.00455 | 67 ft | 8 kts | 226° |
| 2026-04-25 05:42 | 14.52415 | 121.00416 | 65 ft | 7 kts | 226° |
| 2026-04-25 05:42 | 14.52370 | 121.00396 | 61 ft | 8 kts | 160° |
| 2026-04-25 05:42 | 14.52300 | 121.00466 | 64 ft | 35 kts | 134° |
| 2026-04-25 05:43 | 14.51950 | 121.00830 | 68 ft | 104 kts | 135° |
| 2026-04-25 05:43 | 14.51308 | 121.01492 | 106 ft | 151 kts | 135° |
| 2026-04-25 05:43 | 14.50580 | 121.02250 | 732 ft | 149 kts | 137° |
| 2026-04-25 05:43 | 14.49837 | 121.03016 | 1367 ft | 152 kts | 137° |
| 2026-04-25 05:44 | 14.49084 | 121.03798 | 1943 ft | 159 kts | 137° |
| 2026-04-25 05:44 | 14.48253 | 121.04656 | 2229 ft | 181 kts | 135° |
| 2026-04-25 05:44 | 14.47316 | 121.05626 | 2525 ft | 199 kts | 136° |
| 2026-04-25 05:44 | 14.46325 | 121.06646 | 3065 ft | 204 kts | 135° |
| 2026-04-25 05:45 | 14.45311 | 121.07695 | 3625 ft | 208 kts | 135° |
| 2026-04-25 05:45 | 14.44129 | 121.08568 | 4207 ft | 215 kts | 158° |
| 2026-04-25 05:45 | 14.42626 | 121.08593 | 4785 ft | 226 kts | 197° |
| 2026-04-25 05:45 | 14.41359 | 121.07616 | 5349 ft | 234 kts | 229° |
| 2026-04-25 05:46 | 14.40340 | 121.06344 | 6089 ft | 231 kts | 230° |
| 2026-04-25 05:46 | 14.39325 | 121.05055 | 6791 ft | 232 kts | 229° |
| 2026-04-25 05:46 | 14.38306 | 121.03759 | 7466 ft | 234 kts | 230° |
| 2026-04-25 05:46 | 14.37285 | 121.02448 | 8126 ft | 235 kts | 235° |
| 2026-04-25 05:47 | 14.36723 | 121.00879 | 8759 ft | 237 kts | 269° |
| 2026-04-25 05:47 | 14.37094 | 120.99249 | 9385 ft | 237 kts | 303° |
| 2026-04-25 05:47 | 14.38178 | 120.97969 | 10009 ft | 238 kts | 315° |
| 2026-04-25 05:47 | 14.39354 | 120.96765 | 10604 ft | 239 kts | 315° |
| 2026-04-25 05:48 | 14.40546 | 120.95548 | 11177 ft | 242 kts | 315° |
| 2026-04-25 05:48 | 14.41887 | 120.94493 | 11733 ft | 246 kts | 332° |
| 2026-04-25 05:48 | 14.43554 | 120.93856 | 11973 ft | 268 kts | 343° |
| 2026-04-25 05:48 | 14.45429 | 120.93323 | 12132 ft | 291 kts | 343° |
| 2026-04-25 05:49 | 14.47460 | 120.92743 | 12290 ft | 314 kts | 343° |
| 2026-04-25 05:49 | 14.49639 | 120.92112 | 12424 ft | 337 kts | 343° |
| 2026-04-25 05:49 | 14.51972 | 120.91456 | 12546 ft | 359 kts | 347° |
| 2026-04-25 05:49 | 14.54531 | 120.91313 | 12692 ft | 379 kts | 3° |
| 2026-04-25 05:50 | 14.57204 | 120.91524 | 12994 ft | 391 kts | 4° |
| 2026-04-25 05:50 | 14.59935 | 120.91751 | 13500 ft | 396 kts | 4° |
| 2026-04-25 05:50 | 14.62701 | 120.91984 | 13999 ft | 401 kts | 4° |
| 2026-04-25 05:50 | 14.65488 | 120.92221 | 14493 ft | 404 kts | 3° |
| 2026-04-25 05:51 | 14.68297 | 120.92455 | 14996 ft | 407 kts | 3° |
| 2026-04-25 05:51 | 14.71128 | 120.92686 | 15488 ft | 409 kts | 3° |
| 2026-04-25 05:51 | 14.73979 | 120.92919 | 15989 ft | 412 kts | 3° |
| 2026-04-25 05:51 | 14.76851 | 120.93152 | 16485 ft | 415 kts | 3° |
| 2026-04-25 05:52 | 14.79651 | 120.93377 | 16967 ft | 418 kts | 3° |
| 2026-04-25 05:52 | 14.82493 | 120.93607 | 17454 ft | 420 kts | 3° |
| 2026-04-25 05:52 | 14.85425 | 120.93847 | 17924 ft | 423 kts | 3° |
| 2026-04-25 05:52 | 14.88342 | 120.94113 | 18362 ft | 426 kts | 4° |
| 2026-04-25 05:53 | 14.91299 | 120.94470 | 18738 ft | 430 kts | 6° |
| 2026-04-25 05:53 | 14.94275 | 120.94891 | 19099 ft | 433 kts | 6° |
| 2026-04-25 05:53 | 14.97265 | 120.95343 | 19459 ft | 436 kts | 7° |
| 2026-04-25 05:53 | 14.99260 | 120.95646 | 19701 ft | 438 kts | 7° |
| 2026-04-25 05:54 | 15.03311 | 120.96246 | 20174 ft | 442 kts | 6° |
| 2026-04-25 05:54 | 15.06381 | 120.96682 | 20513 ft | 446 kts | 6° |
| 2026-04-25 05:54 | 15.12567 | 120.97532 | 20907 ft | 453 kts | 6° |
| 2026-04-25 05:55 | 15.15731 | 120.97961 | 20923 ft | 464 kts | 6° |
| 2026-04-25 05:55 | 15.18964 | 120.98398 | 20921 ft | 473 kts | 6° |
| 2026-04-25 05:55 | 15.22251 | 120.98843 | 20915 ft | 480 kts | 6° |
| 2026-04-25 05:55 | 15.25576 | 120.99298 | 20914 ft | 483 kts | 6° |
| 2026-04-25 05:56 | 15.28909 | 120.99757 | 20913 ft | 484 kts | 6° |
| 2026-04-25 05:56 | 15.32250 | 121.00219 | 20911 ft | 484 kts | 6° |
| 2026-04-25 05:56 | 15.35580 | 121.00680 | 20911 ft | 484 kts | 6° |
| 2026-04-25 05:56 | 15.38923 | 121.01144 | 20909 ft | 484 kts | 6° |
| 2026-04-25 05:57 | 15.42262 | 121.01610 | 20912 ft | 484 kts | 6° |
| 2026-04-25 05:57 | 15.44473 | 121.01918 | 20912 ft | 484 kts | 6° |
| 2026-04-25 05:57 | 15.48874 | 121.02943 | 20908 ft | 487 kts | 17° |
| 2026-04-25 05:57 | 15.50963 | 121.03791 | 20908 ft | 488 kts | 23° |
| 2026-04-25 05:58 | 15.54029 | 121.05310 | 20909 ft | 488 kts | 24° |
| 2026-04-25 05:58 | 15.57087 | 121.06835 | 20907 ft | 488 kts | 24° |
| 2026-04-25 05:58 | 15.60148 | 121.08360 | 20927 ft | 488 kts | 24° |
| 2026-04-25 05:58 | 15.63215 | 121.09886 | 20931 ft | 488 kts | 24° |
| 2026-04-25 05:59 | 15.66275 | 121.11408 | 20924 ft | 488 kts | 24° |
| 2026-04-25 05:59 | 15.69343 | 121.12933 | 20928 ft | 489 kts | 24° |
| 2026-04-25 05:59 | 15.72410 | 121.14457 | 20928 ft | 489 kts | 24° |
| 2026-04-25 05:59 | 15.75475 | 121.15980 | 20930 ft | 489 kts | 24° |
| 2026-04-25 06:00 | 15.78548 | 121.17508 | 20932 ft | 489 kts | 24° |
| 2026-04-25 06:00 | 15.81620 | 121.19036 | 20949 ft | 489 kts | 24° |
| 2026-04-25 06:00 | 15.84684 | 121.20562 | 20948 ft | 489 kts | 24° |
| 2026-04-25 06:00 | 15.87752 | 121.22096 | 20947 ft | 489 kts | 24° |
| 2026-04-25 06:01 | 15.90815 | 121.23628 | 20940 ft | 489 kts | 24° |
| 2026-04-25 06:01 | 15.93881 | 121.25159 | 20943 ft | 489 kts | 24° |
| 2026-04-25 06:01 | 15.96950 | 121.26692 | 20727 ft | 489 kts | 24° |
| 2026-04-25 06:01 | 16.00004 | 121.28217 | 20370 ft | 485 kts | 24° |
| 2026-04-25 06:02 | 16.03038 | 121.29731 | 19407 ft | 484 kts | 24° |
| 2026-04-25 06:02 | 16.06040 | 121.31231 | 18817 ft | 475 kts | 24° |
| 2026-04-25 06:02 | 16.09007 | 121.32715 | 18090 ft | 469 kts | 24° |
| 2026-04-25 06:02 | 16.11910 | 121.34168 | 17053 ft | 460 kts | 24° |
| 2026-04-25 06:03 | 16.14770 | 121.35599 | 16124 ft | 452 kts | 24° |
| 2026-04-25 06:03 | 16.17599 | 121.37012 | 15376 ft | 447 kts | 24° |
| 2026-04-25 06:03 | 16.20371 | 121.38397 | 14620 ft | 441 kts | 24° |
| 2026-04-25 06:03 | 16.23124 | 121.39773 | 13991 ft | 436 kts | 25° |
| 2026-04-25 06:04 | 16.25842 | 121.41133 | 13251 ft | 432 kts | 25° |
| 2026-04-25 06:04 | 16.28538 | 121.42483 | 12538 ft | 428 kts | 25° |
| 2026-04-25 06:04 | 16.31208 | 121.43820 | 11893 ft | 423 kts | 25° |
| 2026-04-25 06:04 | 16.33850 | 121.45144 | 11282 ft | 418 kts | 25° |
| 2026-04-25 06:05 | 16.36411 | 121.46429 | 11133 ft | 399 kts | 25° |
| 2026-04-25 06:05 | 16.38857 | 121.47656 | 11013 ft | 382 kts | 25° |
| 2026-04-25 06:05 | 16.41199 | 121.48832 | 10893 ft | 366 kts | 25° |
| 2026-04-25 06:05 | 16.43443 | 121.49958 | 10781 ft | 352 kts | 25° |
| 2026-04-25 06:06 | 16.45608 | 121.51046 | 10655 ft | 338 kts | 25° |
| 2026-04-25 06:06 | 16.47690 | 121.52093 | 10534 ft | 327 kts | 24° |
| 2026-04-25 06:06 | 16.49702 | 121.53104 | 10413 ft | 315 kts | 24° |
| 2026-04-25 06:06 | 16.51649 | 121.54082 | 10233 ft | 307 kts | 24° |
| 2026-04-25 06:07 | 16.53560 | 121.55040 | 10088 ft | 301 kts | 24° |
| 2026-04-25 06:07 | 16.55427 | 121.55975 | 9939 ft | 294 kts | 24° |
| 2026-04-25 06:07 | 16.57276 | 121.56901 | 9503 ft | 296 kts | 24° |
| 2026-04-25 06:07 | 16.59134 | 121.57831 | 9092 ft | 296 kts | 25° |
| 2026-04-25 06:08 | 16.60991 | 121.58765 | 8698 ft | 296 kts | 25° |
| 2026-04-25 06:08 | 16.62768 | 121.59838 | 8316 ft | 296 kts | 37° |
| 2026-04-25 06:08 | 16.64239 | 121.61327 | 7930 ft | 295 kts | 51° |
| 2026-04-25 06:08 | 16.65503 | 121.63004 | 7544 ft | 294 kts | 52° |
| 2026-04-25 06:09 | 16.66766 | 121.64677 | 7159 ft | 293 kts | 52° |
| 2026-04-25 06:09 | 16.68024 | 121.66338 | 6768 ft | 292 kts | 52° |
| 2026-04-25 06:09 | 16.69282 | 121.67996 | 6401 ft | 291 kts | 52° |
| 2026-04-25 06:09 | 16.70539 | 121.69652 | 5993 ft | 290 kts | 52° |
| 2026-04-25 06:10 | 16.71784 | 121.71299 | 5608 ft | 289 kts | 52° |
| 2026-04-25 06:10 | 16.73026 | 121.72939 | 5221 ft | 286 kts | 52° |
| 2026-04-25 06:10 | 16.74248 | 121.74551 | 4853 ft | 280 kts | 52° |
| 2026-04-25 06:10 | 16.75438 | 121.76122 | 4486 ft | 274 kts | 52° |
| 2026-04-25 06:11 | 16.76580 | 121.77702 | 3910 ft | 276 kts | 55° |
| 2026-04-25 06:11 | 16.77732 | 121.79342 | 3198 ft | 283 kts | 53° |
| 2026-04-25 06:11 | 16.78939 | 121.80926 | 2869 ft | 269 kts | 52° |
| 2026-04-25 06:11 | 16.80069 | 121.82357 | 2795 ft | 244 kts | 51° |
| 2026-04-25 06:12 | 16.81115 | 121.83665 | 2754 ft | 228 kts | 50° |
| 2026-04-25 06:12 | 16.82176 | 121.84855 | 2703 ft | 219 kts | 48° |
| 2026-04-25 06:12 | 16.83128 | 121.86045 | 2654 ft | 210 kts | 50° |
| 2026-04-25 06:12 | 16.84252 | 121.86890 | 2583 ft | 199 kts | 14° |
| 2026-04-25 06:13 | 16.85579 | 121.86692 | 2361 ft | 192 kts | 324° |
| 2026-04-25 06:13 | 16.86478 | 121.85714 | 2166 ft | 185 kts | 305° |
| 2026-04-25 06:13 | 16.87173 | 121.84628 | 1968 ft | 175 kts | 301° |
| 2026-04-25 06:14 | 16.88349 | 121.82651 | 1637 ft | 151 kts | 301° |
| 2026-04-25 06:14 | 16.88875 | 121.81717 | 1477 ft | 148 kts | 300° |
| 2026-04-25 06:14 | 16.89432 | 121.80817 | 1312 ft | 147 kts | 303° |
| 2026-04-25 06:14 | 16.89987 | 121.79942 | 1104 ft | 147 kts | 302° |
| 2026-04-25 06:15 | 16.90548 | 121.79049 | 913 ft | 147 kts | 304° |
| 2026-04-25 06:15 | 16.91122 | 121.78164 | 722 ft | 147 kts | 304° |
| 2026-04-25 06:15 | 16.91701 | 121.77286 | 532 ft | 146 kts | 304° |
| 2026-04-25 06:15 | 16.92279 | 121.76401 | 354 ft | 146 kts | 304° |
| 2026-04-25 06:16 | 16.92848 | 121.75538 | 210 ft | 137 kts | 304° |
| 2026-04-25 06:16 | 16.93250 | 121.74924 | 211 ft | 60 kts | 304° |
| 2026-04-25 06:16 | 16.93372 | 121.74738 | 213 ft | 24 kts | 304° |
| 2026-04-25 06:16 | 16.93435 | 121.74642 | 212 ft | 25 kts | 304° |
| 2026-04-25 06:17 | 16.93500 | 121.74543 | 215 ft | 26 kts | 304° |
| 2026-04-25 06:17 | 16.93657 | 121.74313 | 208 ft | 7 kts | 334° |
| 2026-04-25 06:17 | 16.93666 | 121.74298 | 211 ft | 1 kts | 234° |
| 2026-04-25 06:17 | 16.93650 | 121.74309 | 211 ft | 5 kts | 127° |
| 2026-04-25 06:18 | 16.93609 | 121.74375 | 213 ft | 15 kts | 122° |
| 2026-04-25 06:18 | 16.93551 | 121.74464 | 213 ft | 16 kts | 124° |
| 2026-04-25 06:18 | 16.93482 | 121.74571 | 210 ft | 19 kts | 124° |
| 2026-04-25 06:18 | 16.93404 | 121.74690 | 217 ft | 21 kts | 124° |
| 2026-04-25 06:19 | 16.93319 | 121.74820 | 212 ft | 22 kts | 124° |
| 2026-04-25 06:19 | 16.93228 | 121.74959 | 212 ft | 24 kts | 124° |
| 2026-04-25 06:19 | 16.93128 | 121.75112 | 213 ft | 26 kts | 124° |
| 2026-04-25 06:19 | 16.93023 | 121.75273 | 208 ft | 26 kts | 123° |
| 2026-04-25 06:20 | 16.92944 | 121.75367 | 211 ft | 10 kts | 172° |
| 2026-04-25 06:20 | 16.92888 | 121.75379 | 213 ft | 6 kts | 167° |
| 2026-04-25 06:20 | 16.92855 | 121.75387 | 210 ft | 4 kts | 165° |
| 2026-04-25 06:20 | 16.92834 | 121.75399 | 212 ft | 3 kts | 143° |
| 2026-04-25 06:21 | 16.92815 | 121.75424 | 217 ft | 5 kts | 124° |
| 2026-04-25 06:21 | 16.92798 | 121.75449 | 217 ft | 4 kts | 124° |
| 2026-04-25 06:21 | 16.92783 | 121.75464 | 212 ft | 3 kts | 156° |
| 2026-04-25 06:21 | 16.92762 | 121.75457 | 208 ft | 3 kts | 219° |
| 2026-04-25 06:22 | 16.92756 | 121.75453 | 208 ft | 0 kts | 213° |